KCVX

Charlevoix Municipal Airport

Airport
ICAO code
KCVX
Summary
ICAO Region
NAM
ICAO Territory
Location

Charlevoix, Michigan

Serving
Charlevoix
Elevation
669 ft
Coordinates
45° 18' 14" N , 85° 15' 58" W
KCC
Airport CFIT
Altimeter Temperature Error Correction
Metar
KCVX 222215Z AUTO 01003KT 10SM CLR 25/09 A2997 RMK AO2 T02460094

Description

Charlevoix Municipal Airport is a public use airport located 1 nm southwest of the central business district of Charlevoix, a city in Charlevoix County, Michigan, USA.

Airport map

Aerial View

SKYbrary Partners:

Safety knowledge contributed by: